sensor_id;sensor_type;location;lat;lon;timestamp;P1;durP1;ratioP1;P2;durP2;ratioP2
14231;SDS011;7200;52.194;9.900;2023-02-04T00:00:44;17.80;;;3.13;;
14231;SDS011;7200;52.194;9.900;2023-02-04T00:03:10;10.00;;;2.67;;
14231;SDS011;7200;52.194;9.900;2023-02-04T00:05:36;15.00;;;3.67;;
14231;SDS011;7200;52.194;9.900;2023-02-04T00:08:01;9.60;;;2.70;;
14231;SDS011;7200;52.194;9.900;2023-02-04T00:10:27;27.43;;;5.67;;
14231;SDS011;7200;52.194;9.900;2023-02-04T00:12:52;17.83;;;3.63;;
14231;SDS011;7200;52.194;9.900;2023-02-04T00:15:18;16.83;;;2.47;;
14231;SDS011;7200;52.194;9.900;2023-02-04T00:17:43;15.03;;;2.53;;
14231;SDS011;7200;52.194;9.900;2023-02-04T00:20:08;6.43;;;1.40;;
14231;SDS011;7200;52.194;9.900;2023-02-04T00:22:34;14.47;;;2.50;;
14231;SDS011;7200;52.194;9.900;2023-02-04T00:24:59;14.07;;;2.93;;
14231;SDS011;7200;52.194;9.900;2023-02-04T00:27:24;1.03;;;0.93;;
14231;SDS011;7200;52.194;9.900;2023-02-04T00:29:50;10.73;;;3.23;;
14231;SDS011;7200;52.194;9.900;2023-02-04T00:32:15;20.73;;;3.47;;
14231;SDS011;7200;52.194;9.900;2023-02-04T00:34:40;17.83;;;2.97;;
14231;SDS011;7200;52.194;9.900;2023-02-04T00:37:06;18.37;;;4.20;;
14231;SDS011;7200;52.194;9.900;2023-02-04T00:39:31;7.23;;;1.80;;
14231;SDS011;7200;52.194;9.900;2023-02-04T00:41:57;17.90;;;2.40;;
14231;SDS011;7200;52.194;9.900;2023-02-04T00:44:22;13.20;;;1.80;;
14231;SDS011;7200;52.194;9.900;2023-02-04T00:46:47;10.00;;;2.33;;
14231;SDS011;7200;52.194;9.900;2023-02-04T00:49:12;10.17;;;1.17;;
14231;SDS011;7200;52.194;9.900;2023-02-04T00:51:38;13.93;;;1.23;;
14231;SDS011;7200;52.194;9.900;2023-02-04T00:54:05;12.53;;;1.63;;
14231;SDS011;7200;52.194;9.900;2023-02-04T00:56:31;12.23;;;1.87;;
14231;SDS011;7200;52.194;9.900;2023-02-04T00:58:56;0.10;;;0.10;;
14231;SDS011;7200;52.194;9.900;2023-02-04T01:01:22;0.10;;;0.10;;
14231;SDS011;7200;52.194;9.900;2023-02-04T01:03:47;0.40;;;0.40;;
14231;SDS011;7200;52.194;9.900;2023-02-04T01:06:12;6.57;;;1.07;;
14231;SDS011;7200;52.194;9.900;2023-02-04T01:08:37;2.20;;;0.80;;
14231;SDS011;7200;52.194;9.900;2023-02-04T01:11:03;0.20;;;0.20;;
14231;SDS011;7200;52.194;9.900;2023-02-04T01:13:28;0.37;;;0.37;;
14231;SDS011;7200;52.194;9.900;2023-02-04T01:15:53;4.13;;;1.50;;
14231;SDS011;7200;52.194;9.900;2023-02-04T01:18:19;2.23;;;0.53;;
14231;SDS011;7200;52.194;9.900;2023-02-04T01:20:44;1.87;;;0.70;;
14231;SDS011;7200;52.194;9.900;2023-02-04T01:23:09;2.27;;;0.83;;
14231;SDS011;7200;52.194;9.900;2023-02-04T01:25:34;9.17;;;1.67;;
14231;SDS011;7200;52.194;9.900;2023-02-04T01:28:00;1.43;;;1.43;;
14231;SDS011;7200;52.194;9.900;2023-02-04T01:30:25;0.50;;;0.40;;
14231;SDS011;7200;52.194;9.900;2023-02-04T01:32:50;6.23;;;0.70;;
14231;SDS011;7200;52.194;9.900;2023-02-04T01:35:16;0.60;;;0.50;;
14231;SDS011;7200;52.194;9.900;2023-02-04T01:37:41;0.10;;;0.10;;
14231;SDS011;7200;52.194;9.900;2023-02-04T01:40:06;0.43;;;0.43;;
14231;SDS011;7200;52.194;9.900;2023-02-04T01:42:33;1.30;;;0.37;;
14231;SDS011;7200;52.194;9.900;2023-02-04T01:44:58;1.43;;;0.40;;
14231;SDS011;7200;52.194;9.900;2023-02-04T01:47:24;2.57;;;0.80;;
14231;SDS011;7200;52.194;9.900;2023-02-04T01:49:50;0.20;;;0.20;;
14231;SDS011;7200;52.194;9.900;2023-02-04T01:52:17;0.20;;;0.20;;
14231;SDS011;7200;52.194;9.900;2023-02-04T01:54:43;0.20;;;0.20;;
14231;SDS011;7200;52.194;9.900;2023-02-04T01:57:09;0.43;;;0.43;;
14231;SDS011;7200;52.194;9.900;2023-02-04T01:59:39;0.10;;;0.10;;
14231;SDS011;7200;52.194;9.900;2023-02-04T02:05:06;0.37;;;0.30;;
14231;SDS011;7200;52.194;9.900;2023-02-04T02:07:33;0.10;;;0.10;;
14231;SDS011;7200;52.194;9.900;2023-02-04T02:09:59;0.53;;;0.53;;
14231;SDS011;7200;52.194;9.900;2023-02-04T02:12:24;1.33;;;0.60;;
14231;SDS011;7200;52.194;9.900;2023-02-04T02:14:49;0.20;;;0.20;;
14231;SDS011;7200;52.194;9.900;2023-02-04T02:17:15;0.93;;;0.73;;
14231;SDS011;7200;52.194;9.900;2023-02-04T02:19:40;0.17;;;0.17;;
14231;SDS011;7200;52.194;9.900;2023-02-04T02:22:12;0.20;;;0.20;;
14231;SDS011;7200;52.194;9.900;2023-02-04T02:24:45;0.10;;;0.10;;
14231;SDS011;7200;52.194;9.900;2023-02-04T02:27:10;0.20;;;0.20;;
14231;SDS011;7200;52.194;9.900;2023-02-04T02:29:37;1.53;;;0.47;;
14231;SDS011;7200;52.194;9.900;2023-02-04T02:32:05;0.30;;;0.30;;
14231;SDS011;7200;52.194;9.900;2023-02-04T02:34:31;0.10;;;0.10;;
14231;SDS011;7200;52.194;9.900;2023-02-04T02:37:07;0.33;;;0.33;;
14231;SDS011;7200;52.194;9.900;2023-02-04T02:39:33;0.20;;;0.20;;
14231;SDS011;7200;52.194;9.900;2023-02-04T02:41:59;0.67;;;0.40;;
14231;SDS011;7200;52.194;9.900;2023-02-04T02:44:25;0.23;;;0.23;;
14231;SDS011;7200;52.194;9.900;2023-02-04T02:46:52;0.20;;;0.20;;
14231;SDS011;7200;52.194;9.900;2023-02-04T02:49:18;0.30;;;0.30;;
14231;SDS011;7200;52.194;9.900;2023-02-04T02:51:45;0.20;;;0.20;;
14231;SDS011;7200;52.194;9.900;2023-02-04T02:56:51;0.30;;;0.30;;
14231;SDS011;7200;52.194;9.900;2023-02-04T02:59:17;3.13;;;1.50;;
14231;SDS011;7200;52.194;9.900;2023-02-04T03:01:43;0.30;;;0.30;;
14231;SDS011;7200;52.194;9.900;2023-02-04T03:04:12;0.40;;;0.40;;
14231;SDS011;7200;52.194;9.900;2023-02-04T03:06:37;0.40;;;0.40;;
14231;SDS011;7200;52.194;9.900;2023-02-04T03:09:03;0.30;;;0.30;;
14231;SDS011;7200;52.194;9.900;2023-02-04T03:11:28;0.33;;;0.33;;
14231;SDS011;7200;52.194;9.900;2023-02-04T03:13:55;0.30;;;0.30;;
14231;SDS011;7200;52.194;9.900;2023-02-04T03:16:22;0.20;;;0.20;;
14231;SDS011;7200;52.194;9.900;2023-02-04T03:18:48;0.30;;;0.30;;
14231;SDS011;7200;52.194;9.900;2023-02-04T03:21:15;0.30;;;0.30;;
14231;SDS011;7200;52.194;9.900;2023-02-04T03:23:40;0.30;;;0.30;;
14231;SDS011;7200;52.194;9.900;2023-02-04T03:26:05;0.20;;;0.20;;
14231;SDS011;7200;52.194;9.900;2023-02-04T03:28:31;0.30;;;0.30;;
14231;SDS011;7200;52.194;9.900;2023-02-04T03:30:57;0.20;;;0.20;;
14231;SDS011;7200;52.194;9.900;2023-02-04T03:33:23;0.30;;;0.30;;
14231;SDS011;7200;52.194;9.900;2023-02-04T03:35:55;0.20;;;0.20;;
14231;SDS011;7200;52.194;9.900;2023-02-04T03:38:24;0.30;;;0.30;;
14231;SDS011;7200;52.194;9.900;2023-02-04T03:40:49;0.20;;;0.20;;
14231;SDS011;7200;52.194;9.900;2023-02-04T03:43:15;0.30;;;0.30;;
14231;SDS011;7200;52.194;9.900;2023-02-04T03:45:40;0.30;;;0.30;;
14231;SDS011;7200;52.194;9.900;2023-02-04T03:48:05;0.23;;;0.23;;
14231;SDS011;7200;52.194;9.900;2023-02-04T03:50:30;0.30;;;0.30;;
14231;SDS011;7200;52.194;9.900;2023-02-04T03:52:56;0.20;;;0.20;;
14231;SDS011;7200;52.194;9.900;2023-02-04T03:55:21;0.20;;;0.20;;
14231;SDS011;7200;52.194;9.900;2023-02-04T03:57:46;0.50;;;0.50;;
14231;SDS011;7200;52.194;9.900;2023-02-04T04:00:12;0.20;;;0.20;;
14231;SDS011;7200;52.194;9.900;2023-02-04T04:02:39;0.20;;;0.20;;
14231;SDS011;7200;52.194;9.900;2023-02-04T04:05:05;0.20;;;0.20;;
14231;SDS011;7200;52.194;9.900;2023-02-04T04:07:31;0.20;;;0.20;;
14231;SDS011;7200;52.194;9.900;2023-02-04T04:09:57;0.30;;;0.30;;
14231;SDS011;7200;52.194;9.900;2023-02-04T04:12:22;0.20;;;0.20;;
14231;SDS011;7200;52.194;9.900;2023-02-04T04:14:47;0.20;;;0.20;;
14231;SDS011;7200;52.194;9.900;2023-02-04T04:17:12;0.20;;;0.20;;
14231;SDS011;7200;52.194;9.900;2023-02-04T04:19:38;0.20;;;0.20;;
14231;SDS011;7200;52.194;9.900;2023-02-04T04:22:03;0.10;;;0.10;;
14231;SDS011;7200;52.194;9.900;2023-02-04T04:24:28;0.20;;;0.20;;
14231;SDS011;7200;52.194;9.900;2023-02-04T04:26:54;0.10;;;0.10;;
14231;SDS011;7200;52.194;9.900;2023-02-04T04:29:19;0.10;;;0.10;;
14231;SDS011;7200;52.194;9.900;2023-02-04T04:31:44;0.10;;;0.10;;
14231;SDS011;7200;52.194;9.900;2023-02-04T04:34:09;0.10;;;0.10;;
14231;SDS011;7200;52.194;9.900;2023-02-04T04:36:35;0.10;;;0.10;;
14231;SDS011;7200;52.194;9.900;2023-02-04T04:39:00;0.20;;;0.20;;
14231;SDS011;7200;52.194;9.900;2023-02-04T04:41:26;0.20;;;0.20;;
14231;SDS011;7200;52.194;9.900;2023-02-04T04:43:51;0.10;;;0.10;;
14231;SDS011;7200;52.194;9.900;2023-02-04T04:46:16;0.20;;;0.20;;
14231;SDS011;7200;52.194;9.900;2023-02-04T04:48:41;0.10;;;0.10;;
14231;SDS011;7200;52.194;9.900;2023-02-04T04:51:07;0.20;;;0.20;;
14231;SDS011;7200;52.194;9.900;2023-02-04T04:53:32;0.50;;;0.50;;
14231;SDS011;7200;52.194;9.900;2023-02-04T04:55:57;0.40;;;0.40;;
14231;SDS011;7200;52.194;9.900;2023-02-04T04:58:22;0.20;;;0.20;;
14231;SDS011;7200;52.194;9.900;2023-02-04T05:00:48;0.30;;;0.30;;
14231;SDS011;7200;52.194;9.900;2023-02-04T05:03:13;0.20;;;0.20;;
14231;SDS011;7200;52.194;9.900;2023-02-04T05:05:38;0.10;;;0.10;;
14231;SDS011;7200;52.194;9.900;2023-02-04T05:08:05;0.10;;;0.10;;
14231;SDS011;7200;52.194;9.900;2023-02-04T05:10:34;0.10;;;0.10;;
14231;SDS011;7200;52.194;9.900;2023-02-04T05:13:00;0.10;;;0.10;;
14231;SDS011;7200;52.194;9.900;2023-02-04T05:15:25;0.63;;;0.63;;
14231;SDS011;7200;52.194;9.900;2023-02-04T05:17:50;0.10;;;0.10;;
14231;SDS011;7200;52.194;9.900;2023-02-04T05:20:16;0.10;;;0.10;;
14231;SDS011;7200;52.194;9.900;2023-02-04T05:22:42;0.37;;;0.37;;
14231;SDS011;7200;52.194;9.900;2023-02-04T05:25:07;0.10;;;0.10;;
14231;SDS011;7200;52.194;9.900;2023-02-04T05:27:32;0.10;;;0.10;;
14231;SDS011;7200;52.194;9.900;2023-02-04T05:29:58;0.20;;;0.20;;
14231;SDS011;7200;52.194;9.900;2023-02-04T05:32:23;0.10;;;0.10;;
14231;SDS011;7200;52.194;9.900;2023-02-04T05:34:48;0.10;;;0.10;;
14231;SDS011;7200;52.194;9.900;2023-02-04T05:37:13;0.20;;;0.20;;
14231;SDS011;7200;52.194;9.900;2023-02-04T05:39:39;0.10;;;0.10;;
14231;SDS011;7200;52.194;9.900;2023-02-04T05:42:04;0.10;;;0.10;;
14231;SDS011;7200;52.194;9.900;2023-02-04T05:44:29;0.10;;;0.10;;
14231;SDS011;7200;52.194;9.900;2023-02-04T05:46:55;0.47;;;0.47;;
14231;SDS011;7200;52.194;9.900;2023-02-04T05:49:20;0.10;;;0.10;;
14231;SDS011;7200;52.194;9.900;2023-02-04T05:51:45;0.10;;;0.10;;
14231;SDS011;7200;52.194;9.900;2023-02-04T05:54:10;0.10;;;0.10;;
14231;SDS011;7200;52.194;9.900;2023-02-04T05:56:43;0.10;;;0.10;;
14231;SDS011;7200;52.194;9.900;2023-02-04T05:59:08;0.20;;;0.20;;
14231;SDS011;7200;52.194;9.900;2023-02-04T06:01:33;0.10;;;0.10;;
14231;SDS011;7200;52.194;9.900;2023-02-04T06:03:58;0.10;;;0.10;;
14231;SDS011;7200;52.194;9.900;2023-02-04T06:06:24;0.10;;;0.10;;
14231;SDS011;7200;52.194;9.900;2023-02-04T06:08:49;0.10;;;0.10;;
14231;SDS011;7200;52.194;9.900;2023-02-04T06:11:14;0.10;;;0.10;;
14231;SDS011;7200;52.194;9.900;2023-02-04T06:13:39;0.10;;;0.10;;
14231;SDS011;7200;52.194;9.900;2023-02-04T06:16:05;0.10;;;0.10;;
14231;SDS011;7200;52.194;9.900;2023-02-04T06:18:30;0.27;;;0.27;;
14231;SDS011;7200;52.194;9.900;2023-02-04T06:20:56;0.10;;;0.10;;
14231;SDS011;7200;52.194;9.900;2023-02-04T06:23:21;0.10;;;0.10;;
14231;SDS011;7200;52.194;9.900;2023-02-04T06:25:46;0.10;;;0.10;;
14231;SDS011;7200;52.194;9.900;2023-02-04T06:28:13;0.10;;;0.10;;
14231;SDS011;7200;52.194;9.900;2023-02-04T06:30:39;0.30;;;0.30;;
14231;SDS011;7200;52.194;9.900;2023-02-04T06:33:04;0.10;;;0.10;;
14231;SDS011;7200;52.194;9.900;2023-02-04T06:35:29;0.10;;;0.10;;
14231;SDS011;7200;52.194;9.900;2023-02-04T06:37:54;0.57;;;0.57;;
14231;SDS011;7200;52.194;9.900;2023-02-04T06:40:20;0.10;;;0.10;;
14231;SDS011;7200;52.194;9.900;2023-02-04T06:42:45;0.20;;;0.20;;
14231;SDS011;7200;52.194;9.900;2023-02-04T06:45:10;0.20;;;0.20;;
14231;SDS011;7200;52.194;9.900;2023-02-04T06:47:35;0.50;;;0.50;;
14231;SDS011;7200;52.194;9.900;2023-02-04T06:50:01;0.20;;;0.20;;
14231;SDS011;7200;52.194;9.900;2023-02-04T06:52:26;0.10;;;0.10;;
14231;SDS011;7200;52.194;9.900;2023-02-04T06:54:52;0.20;;;0.20;;
14231;SDS011;7200;52.194;9.900;2023-02-04T06:57:17;0.20;;;0.20;;
14231;SDS011;7200;52.194;9.900;2023-02-04T06:59:42;0.33;;;0.33;;
14231;SDS011;7200;52.194;9.900;2023-02-04T07:02:07;0.80;;;0.80;;
14231;SDS011;7200;52.194;9.900;2023-02-04T07:04:35;1.07;;;1.07;;
14231;SDS011;7200;52.194;9.900;2023-02-04T07:07:00;0.10;;;0.10;;
14231;SDS011;7200;52.194;9.900;2023-02-04T07:09:25;0.10;;;0.10;;
14231;SDS011;7200;52.194;9.900;2023-02-04T07:11:51;0.30;;;0.30;;
14231;SDS011;7200;52.194;9.900;2023-02-04T07:14:16;0.20;;;0.20;;
14231;SDS011;7200;52.194;9.900;2023-02-04T07:16:42;0.10;;;0.10;;
14231;SDS011;7200;52.194;9.900;2023-02-04T07:19:08;0.10;;;0.10;;
14231;SDS011;7200;52.194;9.900;2023-02-04T07:21:33;0.10;;;0.10;;
14231;SDS011;7200;52.194;9.900;2023-02-04T07:23:59;0.40;;;0.40;;
14231;SDS011;7200;52.194;9.900;2023-02-04T07:26:24;0.10;;;0.10;;
14231;SDS011;7200;52.194;9.900;2023-02-04T07:28:49;0.70;;;0.70;;
14231;SDS011;7200;52.194;9.900;2023-02-04T07:31:15;0.10;;;0.10;;
14231;SDS011;7200;52.194;9.900;2023-02-04T07:33:40;0.10;;;0.10;;
14231;SDS011;7200;52.194;9.900;2023-02-04T07:36:05;0.23;;;0.23;;
14231;SDS011;7200;52.194;9.900;2023-02-04T07:38:31;0.10;;;0.10;;
14231;SDS011;7200;52.194;9.900;2023-02-04T07:40:56;0.10;;;0.10;;
14231;SDS011;7200;52.194;9.900;2023-02-04T07:43:22;0.10;;;0.10;;
14231;SDS011;7200;52.194;9.900;2023-02-04T07:45:47;0.10;;;0.10;;
14231;SDS011;7200;52.194;9.900;2023-02-04T07:48:12;0.10;;;0.10;;
14231;SDS011;7200;52.194;9.900;2023-02-04T07:50:38;1.27;;;1.17;;
14231;SDS011;7200;52.194;9.900;2023-02-04T07:53:03;0.23;;;0.23;;
14231;SDS011;7200;52.194;9.900;2023-02-04T07:55:28;0.10;;;0.10;;
14231;SDS011;7200;52.194;9.900;2023-02-04T07:57:53;0.10;;;0.10;;
14231;SDS011;7200;52.194;9.900;2023-02-04T08:00:19;0.20;;;0.20;;
14231;SDS011;7200;52.194;9.900;2023-02-04T08:02:45;0.10;;;0.10;;
14231;SDS011;7200;52.194;9.900;2023-02-04T08:05:10;0.20;;;0.20;;
14231;SDS011;7200;52.194;9.900;2023-02-04T08:07:35;0.10;;;0.10;;
14231;SDS011;7200;52.194;9.900;2023-02-04T08:10:02;0.10;;;0.10;;
14231;SDS011;7200;52.194;9.900;2023-02-04T08:12:28;0.10;;;0.10;;
14231;SDS011;7200;52.194;9.900;2023-02-04T08:14:54;0.10;;;0.10;;
14231;SDS011;7200;52.194;9.900;2023-02-04T08:17:19;0.67;;;0.67;;
14231;SDS011;7200;52.194;9.900;2023-02-04T08:19:45;0.40;;;0.40;;
14231;SDS011;7200;52.194;9.900;2023-02-04T08:22:10;0.20;;;0.20;;
14231;SDS011;7200;52.194;9.900;2023-02-04T08:24:36;1.17;;;1.10;;
14231;SDS011;7200;52.194;9.900;2023-02-04T08:27:01;0.10;;;0.10;;
14231;SDS011;7200;52.194;9.900;2023-02-04T08:29:26;0.10;;;0.10;;
14231;SDS011;7200;52.194;9.900;2023-02-04T08:31:52;0.20;;;0.20;;
14231;SDS011;7200;52.194;9.900;2023-02-04T08:34:17;0.10;;;0.10;;
14231;SDS011;7200;52.194;9.900;2023-02-04T08:36:42;0.20;;;0.20;;
14231;SDS011;7200;52.194;9.900;2023-02-04T08:39:08;0.73;;;0.73;;
14231;SDS011;7200;52.194;9.900;2023-02-04T08:41:34;0.43;;;0.43;;
14231;SDS011;7200;52.194;9.900;2023-02-04T08:43:59;0.40;;;0.40;;
14231;SDS011;7200;52.194;9.900;2023-02-04T08:46:25;0.53;;;0.53;;
14231;SDS011;7200;52.194;9.900;2023-02-04T08:48:50;0.10;;;0.10;;
14231;SDS011;7200;52.194;9.900;2023-02-04T08:51:15;0.10;;;0.10;;
14231;SDS011;7200;52.194;9.900;2023-02-04T08:53:41;0.30;;;0.30;;
14231;SDS011;7200;52.194;9.900;2023-02-04T08:56:06;0.37;;;0.37;;
14231;SDS011;7200;52.194;9.900;2023-02-04T08:58:33;0.50;;;0.50;;
14231;SDS011;7200;52.194;9.900;2023-02-04T09:00:59;0.30;;;0.30;;
14231;SDS011;7200;52.194;9.900;2023-02-04T09:03:24;0.57;;;0.50;;
14231;SDS011;7200;52.194;9.900;2023-02-04T09:05:49;0.43;;;0.40;;
14231;SDS011;7200;52.194;9.900;2023-02-04T09:08:14;0.40;;;0.40;;
14231;SDS011;7200;52.194;9.900;2023-02-04T09:10:40;1.00;;;1.00;;
14231;SDS011;7200;52.194;9.900;2023-02-04T09:13:05;0.57;;;0.57;;
14231;SDS011;7200;52.194;9.900;2023-02-04T09:15:33;0.13;;;0.13;;
14231;SDS011;7200;52.194;9.900;2023-02-04T09:17:58;0.20;;;0.20;;
14231;SDS011;7200;52.194;9.900;2023-02-04T09:20:35;0.60;;;0.60;;
14231;SDS011;7200;52.194;9.900;2023-02-04T09:23:01;1.30;;;0.80;;
14231;SDS011;7200;52.194;9.900;2023-02-04T09:25:26;0.70;;;0.70;;
14231;SDS011;7200;52.194;9.900;2023-02-04T09:27:51;0.10;;;0.10;;
14231;SDS011;7200;52.194;9.900;2023-02-04T09:30:17;0.10;;;0.10;;
14231;SDS011;7200;52.194;9.900;2023-02-04T09:32:42;6.43;;;0.70;;
14231;SDS011;7200;52.194;9.900;2023-02-04T09:35:07;0.70;;;0.70;;
14231;SDS011;7200;52.194;9.900;2023-02-04T09:37:32;2.67;;;0.40;;
14231;SDS011;7200;52.194;9.900;2023-02-04T09:39:58;3.73;;;1.23;;
14231;SDS011;7200;52.194;9.900;2023-02-04T09:42:23;0.43;;;0.43;;
14231;SDS011;7200;52.194;9.900;2023-02-04T09:44:50;0.73;;;0.73;;
14231;SDS011;7200;52.194;9.900;2023-02-04T09:47:15;0.87;;;0.87;;
14231;SDS011;7200;52.194;9.900;2023-02-04T09:49:45;0.20;;;0.20;;
14231;SDS011;7200;52.194;9.900;2023-02-04T09:52:11;0.93;;;0.83;;
14231;SDS011;7200;52.194;9.900;2023-02-04T09:54:40;1.03;;;0.97;;
14231;SDS011;7200;52.194;9.900;2023-02-04T09:57:12;0.20;;;0.20;;
14231;SDS011;7200;52.194;9.900;2023-02-04T09:59:41;0.80;;;0.80;;
14231;SDS011;7200;52.194;9.900;2023-02-04T10:02:23;0.37;;;0.37;;
14231;SDS011;7200;52.194;9.900;2023-02-04T10:04:50;0.30;;;0.30;;
14231;SDS011;7200;52.194;9.900;2023-02-04T10:07:21;0.20;;;0.20;;
14231;SDS011;7200;52.194;9.900;2023-02-04T10:09:49;0.30;;;0.30;;
14231;SDS011;7200;52.194;9.900;2023-02-04T10:12:15;0.20;;;0.20;;
14231;SDS011;7200;52.194;9.900;2023-02-04T10:14:41;0.20;;;0.20;;
14231;SDS011;7200;52.194;9.900;2023-02-04T10:17:07;1.07;;;1.03;;
14231;SDS011;7200;52.194;9.900;2023-02-04T10:19:34;0.83;;;0.83;;
14231;SDS011;7200;52.194;9.900;2023-02-04T10:22:00;0.40;;;0.40;;
14231;SDS011;7200;52.194;9.900;2023-02-04T10:24:27;0.20;;;0.20;;
14231;SDS011;7200;52.194;9.900;2023-02-04T10:27:04;0.20;;;0.20;;
14231;SDS011;7200;52.194;9.900;2023-02-04T10:29:31;0.40;;;0.40;;
14231;SDS011;7200;52.194;9.900;2023-02-04T10:31:56;0.20;;;0.20;;
14231;SDS011;7200;52.194;9.900;2023-02-04T10:34:23;0.43;;;0.43;;
14231;SDS011;7200;52.194;9.900;2023-02-04T10:36:59;0.63;;;0.53;;
14231;SDS011;7200;52.194;9.900;2023-02-04T10:39:28;0.20;;;0.20;;
14231;SDS011;7200;52.194;9.900;2023-02-04T10:41:58;0.20;;;0.20;;
14231;SDS011;7200;52.194;9.900;2023-02-04T10:44:28;0.43;;;0.43;;
14231;SDS011;7200;52.194;9.900;2023-02-04T10:46:59;0.20;;;0.20;;
14231;SDS011;7200;52.194;9.900;2023-02-04T10:49:39;1.37;;;1.17;;
14231;SDS011;7200;52.194;9.900;2023-02-04T10:52:15;0.60;;;0.60;;
14231;SDS011;7200;52.194;9.900;2023-02-04T10:54:41;0.63;;;0.53;;
14231;SDS011;7200;52.194;9.900;2023-02-04T10:57:16;0.20;;;0.20;;
14231;SDS011;7200;52.194;9.900;2023-02-04T10:59:50;0.73;;;0.73;;
14231;SDS011;7200;52.194;9.900;2023-02-04T11:02:53;0.20;;;0.20;;
14231;SDS011;7200;52.194;9.900;2023-02-04T11:05:14;1.40;;;1.30;;
14231;SDS011;7200;52.194;9.900;2023-02-04T11:07:41;0.20;;;0.20;;
14231;SDS011;7200;52.194;9.900;2023-02-04T11:10:11;0.37;;;0.37;;
14231;SDS011;7200;52.194;9.900;2023-02-04T11:12:42;0.20;;;0.20;;
14231;SDS011;7200;52.194;9.900;2023-02-04T11:18:10;0.20;;;0.20;;
14231;SDS011;7200;52.194;9.900;2023-02-04T11:20:44;3.60;;;3.50;;
14231;SDS011;7200;52.194;9.900;2023-02-04T11:23:15;0.97;;;0.60;;
14231;SDS011;7200;52.194;9.900;2023-02-04T11:25:49;0.67;;;0.67;;
14231;SDS011;7200;52.194;9.900;2023-02-04T11:28:43;0.30;;;0.30;;
14231;SDS011;7200;52.194;9.900;2023-02-04T11:34:01;0.67;;;0.67;;
14231;SDS011;7200;52.194;9.900;2023-02-04T11:36:34;0.87;;;0.77;;
14231;SDS011;7200;52.194;9.900;2023-02-04T11:39:05;0.93;;;0.93;;
14231;SDS011;7200;52.194;9.900;2023-02-04T11:41:38;0.50;;;0.50;;
14231;SDS011;7200;52.194;9.900;2023-02-04T11:44:03;0.40;;;0.40;;
14231;SDS011;7200;52.194;9.900;2023-02-04T11:46:29;0.70;;;0.70;;
14231;SDS011;7200;52.194;9.900;2023-02-04T11:48:55;0.50;;;0.50;;
14231;SDS011;7200;52.194;9.900;2023-02-04T11:51:32;0.50;;;0.50;;
14231;SDS011;7200;52.194;9.900;2023-02-04T11:53:58;1.73;;;1.63;;
14231;SDS011;7200;52.194;9.900;2023-02-04T11:56:26;0.60;;;0.60;;
14231;SDS011;7200;52.194;9.900;2023-02-04T11:58:54;0.30;;;0.30;;
14231;SDS011;7200;52.194;9.900;2023-02-04T12:01:22;0.60;;;0.60;;
14231;SDS011;7200;52.194;9.900;2023-02-04T12:03:50;0.20;;;0.20;;
14231;SDS011;7200;52.194;9.900;2023-02-04T12:06:21;0.27;;;0.27;;
14231;SDS011;7200;52.194;9.900;2023-02-04T12:08:49;1.23;;;1.07;;
14231;SDS011;7200;52.194;9.900;2023-02-04T12:11:25;0.37;;;0.37;;
14231;SDS011;7200;52.194;9.900;2023-02-04T12:13:53;0.47;;;0.47;;
14231;SDS011;7200;52.194;9.900;2023-02-04T12:16:20;0.27;;;0.27;;
14231;SDS011;7200;52.194;9.900;2023-02-04T12:18:46;0.20;;;0.20;;
14231;SDS011;7200;52.194;9.900;2023-02-04T12:21:12;0.80;;;0.43;;
14231;SDS011;7200;52.194;9.900;2023-02-04T12:23:38;0.73;;;0.73;;
14231;SDS011;7200;52.194;9.900;2023-02-04T12:26:04;0.20;;;0.20;;
14231;SDS011;7200;52.194;9.900;2023-02-04T12:28:29;0.40;;;0.40;;
14231;SDS011;7200;52.194;9.900;2023-02-04T12:30:55;0.40;;;0.40;;
14231;SDS011;7200;52.194;9.900;2023-02-04T12:33:21;0.10;;;0.10;;
14231;SDS011;7200;52.194;9.900;2023-02-04T12:35:47;0.40;;;0.40;;
14231;SDS011;7200;52.194;9.900;2023-02-04T12:38:12;0.70;;;0.70;;
14231;SDS011;7200;52.194;9.900;2023-02-04T12:40:38;0.10;;;0.10;;
14231;SDS011;7200;52.194;9.900;2023-02-04T12:43:03;0.20;;;0.20;;
14231;SDS011;7200;52.194;9.900;2023-02-04T12:45:29;0.30;;;0.30;;
14231;SDS011;7200;52.194;9.900;2023-02-04T12:47:54;1.07;;;0.30;;
14231;SDS011;7200;52.194;9.900;2023-02-04T12:50:19;0.20;;;0.20;;
14231;SDS011;7200;52.194;9.900;2023-02-04T12:52:51;0.27;;;0.27;;
14231;SDS011;7200;52.194;9.900;2023-02-04T12:55:18;0.23;;;0.23;;
14231;SDS011;7200;52.194;9.900;2023-02-04T12:57:44;0.53;;;0.53;;
14231;SDS011;7200;52.194;9.900;2023-02-04T13:00:10;0.30;;;0.30;;
14231;SDS011;7200;52.194;9.900;2023-02-04T13:02:36;0.53;;;0.53;;
14231;SDS011;7200;52.194;9.900;2023-02-04T13:05:01;0.50;;;0.50;;
14231;SDS011;7200;52.194;9.900;2023-02-04T13:07:27;0.20;;;0.20;;
14231;SDS011;7200;52.194;9.900;2023-02-04T13:09:52;0.20;;;0.20;;
14231;SDS011;7200;52.194;9.900;2023-02-04T13:12:17;0.53;;;0.30;;
14231;SDS011;7200;52.194;9.900;2023-02-04T13:14:43;0.20;;;0.20;;
14231;SDS011;7200;52.194;9.900;2023-02-04T13:17:08;0.30;;;0.30;;
14231;SDS011;7200;52.194;9.900;2023-02-04T13:19:34;0.20;;;0.20;;
14231;SDS011;7200;52.194;9.900;2023-02-04T13:22:00;0.20;;;0.20;;
14231;SDS011;7200;52.194;9.900;2023-02-04T13:24:26;0.20;;;0.20;;
14231;SDS011;7200;52.194;9.900;2023-02-04T13:26:51;0.30;;;0.30;;
14231;SDS011;7200;52.194;9.900;2023-02-04T13:29:17;0.30;;;0.30;;
14231;SDS011;7200;52.194;9.900;2023-02-04T13:31:42;0.20;;;0.20;;
14231;SDS011;7200;52.194;9.900;2023-02-04T13:34:08;0.20;;;0.20;;
14231;SDS011;7200;52.194;9.900;2023-02-04T13:36:33;0.20;;;0.20;;
14231;SDS011;7200;52.194;9.900;2023-02-04T13:38:58;0.20;;;0.20;;
14231;SDS011;7200;52.194;9.900;2023-02-04T13:41:25;0.30;;;0.30;;
14231;SDS011;7200;52.194;9.900;2023-02-04T13:43:51;0.20;;;0.20;;
14231;SDS011;7200;52.194;9.900;2023-02-04T13:46:16;0.20;;;0.20;;
14231;SDS011;7200;52.194;9.900;2023-02-04T13:48:42;0.30;;;0.30;;
14231;SDS011;7200;52.194;9.900;2023-02-04T13:51:07;0.30;;;0.30;;
14231;SDS011;7200;52.194;9.900;2023-02-04T13:53:32;0.20;;;0.20;;
14231;SDS011;7200;52.194;9.900;2023-02-04T13:55:58;0.20;;;0.20;;
14231;SDS011;7200;52.194;9.900;2023-02-04T13:58:23;0.30;;;0.30;;
14231;SDS011;7200;52.194;9.900;2023-02-04T14:00:49;0.20;;;0.20;;
14231;SDS011;7200;52.194;9.900;2023-02-04T14:03:21;0.20;;;0.20;;
14231;SDS011;7200;52.194;9.900;2023-02-04T14:05:46;0.20;;;0.20;;
14231;SDS011;7200;52.194;9.900;2023-02-04T14:08:11;0.23;;;0.23;;
14231;SDS011;7200;52.194;9.900;2023-02-04T14:10:37;0.27;;;0.27;;
14231;SDS011;7200;52.194;9.900;2023-02-04T14:13:02;0.20;;;0.20;;
14231;SDS011;7200;52.194;9.900;2023-02-04T14:15:27;0.20;;;0.20;;
14231;SDS011;7200;52.194;9.900;2023-02-04T14:17:52;0.20;;;0.20;;
14231;SDS011;7200;52.194;9.900;2023-02-04T14:20:18;0.20;;;0.20;;
14231;SDS011;7200;52.194;9.900;2023-02-04T14:22:43;0.20;;;0.20;;
14231;SDS011;7200;52.194;9.900;2023-02-04T14:25:08;0.20;;;0.20;;
14231;SDS011;7200;52.194;9.900;2023-02-04T14:27:34;0.20;;;0.20;;
14231;SDS011;7200;52.194;9.900;2023-02-04T14:30:00;0.10;;;0.10;;
14231;SDS011;7200;52.194;9.900;2023-02-04T14:32:26;0.20;;;0.20;;
14231;SDS011;7200;52.194;9.900;2023-02-04T14:34:51;0.20;;;0.20;;
14231;SDS011;7200;52.194;9.900;2023-02-04T14:37:16;0.20;;;0.20;;
14231;SDS011;7200;52.194;9.900;2023-02-04T14:39:42;0.20;;;0.20;;
14231;SDS011;7200;52.194;9.900;2023-02-04T14:42:07;0.20;;;0.20;;
14231;SDS011;7200;52.194;9.900;2023-02-04T14:44:32;0.20;;;0.20;;
14231;SDS011;7200;52.194;9.900;2023-02-04T14:46:57;0.20;;;0.20;;
14231;SDS011;7200;52.194;9.900;2023-02-04T14:49:23;0.20;;;0.20;;
14231;SDS011;7200;52.194;9.900;2023-02-04T14:51:48;0.20;;;0.20;;
14231;SDS011;7200;52.194;9.900;2023-02-04T14:54:13;0.30;;;0.30;;
14231;SDS011;7200;52.194;9.900;2023-02-04T14:56:40;0.20;;;0.20;;
14231;SDS011;7200;52.194;9.900;2023-02-04T14:59:05;0.30;;;0.30;;
14231;SDS011;7200;52.194;9.900;2023-02-04T15:01:31;0.30;;;0.30;;
14231;SDS011;7200;52.194;9.900;2023-02-04T15:03:56;0.30;;;0.30;;
14231;SDS011;7200;52.194;9.900;2023-02-04T15:06:22;0.50;;;0.50;;